Time;durP1;ratioP1;P1;durP2;ratioP2;P2;SDS_P1;SDS_P2;PMS_P1;PMS_P2;Temp;Humidity;BMP_temperature;BMP_pressure;BME280_temperature;BME280_humidity;BME280_pressure;Samples;Min_cycle;Max_cycle;Signal;HPM_P1;HPM_P2
2022/04/12 00:01:23;;;;;;;;;;;23.90;39.60;;;;;;1508935;79;760;-67
2022/04/12 00:03:25;;;;;;;;;;;23.90;39.50;;;;;;1506959;78;750;-66
2022/04/12 00:05:27;;;;;;;;;;;23.80;39.50;;;;;;1508575;79;1937;-65
2022/04/12 00:07:29;;;;;;;;;;;23.80;39.50;;;;;;1505801;79;757;-65
2022/04/12 00:09:31;;;;;;;;;;;23.90;39.70;;;;;;1506838;79;1128;-67
2022/04/12 00:11:33;;;;;;;;;;;23.80;39.60;;;;;;1501410;78;773;-65
2022/04/12 00:13:35;;;;;;;;;;;23.80;39.70;;;;;;1499479;79;745;-65
2022/04/12 00:15:37;;;;;;;;;;;23.80;39.70;;;;;;1506360;78;815;-67
2022/04/12 00:19:59;;;;;;;;;;;23.80;39.70;;;;;;1497852;78;1631;-66
2022/04/12 00:22:00;;;;;;;;;;;23.70;39.80;;;;;;1505225;79;775;-66
2022/04/12 00:24:03;;;;;;;;;;;23.70;39.90;;;;;;1506876;79;696;-67
2022/04/12 00:26:05;;;;;;;;;;;23.80;39.90;;;;;;1507661;78;1935;-65
2022/04/12 00:28:07;;;;;;;;;;;23.80;39.90;;;;;;1507028;79;769;-68
2022/04/12 00:30:11;;;;;;;;;;;23.90;39.80;;;;;;1507744;79;1171;-67
2022/04/12 00:32:13;;;;;;;;;;;24.00;39.90;;;;;;1508028;79;767;-67
2022/04/12 00:34:15;;;;;;;;;;;24.20;40.00;;;;;;1504387;78;779;-67
2022/04/12 00:36:17;;;;;;;;;;;24.00;39.90;;;;;;1495292;78;764;-68
2022/04/12 00:38:22;;;;;;;;;;;23.90;39.90;;;;;;1504129;79;812;-70
2022/04/12 00:40:24;;;;;;;;;;;24.00;39.80;;;;;;1534706;76;2084;-63
2022/04/12 00:42:26;;;;;;;;;;;23.90;39.80;;;;;;1519875;77;735;-64
2022/04/12 00:44:28;;;;;;;;;;;23.90;39.70;;;;;;1536999;76;767;-63
2022/04/12 00:46:30;;;;;;;;;;;23.90;39.80;;;;;;1495643;78;1934;-64
2022/04/12 00:48:32;;;;;;;;;;;23.90;39.90;;;;;;1526571;77;789;-65
2022/04/12 00:50:34;;;;;;;;;;;23.90;40.00;;;;;;1539015;76;1183;-68
2022/04/12 00:52:37;;;;;;;;;;;23.90;40.00;;;;;;1540864;76;768;-64
2022/04/12 00:54:39;;;;;;;;;;;23.90;40.00;;;;;;1522245;77;716;-67
2022/04/12 00:56:41;;;;;;;;;;;23.90;40.00;;;;;;1531605;77;715;-66
2022/04/12 00:58:46;;;;;;;;;;;23.90;40.10;;;;;;1511808;77;784;-64
2022/04/12 01:00:49;;;;;;;;;;;23.90;40.20;;;;;;1505439;77;1725;-65
2022/04/12 01:02:50;;;;;;;;;;;23.90;40.20;;;;;;1523555;77;1662;-63
2022/04/12 01:04:52;;;;;;;;;;;23.90;40.20;;;;;;1525140;77;581;-63
2022/04/12 01:06:53;;;;;;;;;;;23.90;40.20;;;;;;1522599;77;1944;-67
2022/04/12 01:08:55;;;;;;;;;;;23.80;40.20;;;;;;1525419;77;1153;-64
2022/04/12 01:10:59;;;;;;;;;;;23.80;40.30;;;;;;1531003;77;695;-65
2022/04/12 01:13:01;;;;;;;;;;;23.90;40.30;;;;;;1519822;77;806;-65
2022/04/12 01:15:18;;;;;;;;;;;23.90;40.30;;;;;;1519892;77;845;-62
2022/04/12 01:17:20;;;;;;;;;;;23.90;40.30;;;;;;1516258;77;711;-61
2022/04/12 01:19:22;;;;;;;;;;;23.90;40.30;;;;;;1520359;77;1115;-63
2022/04/12 01:21:24;;;;;;;;;;;23.90;40.40;;;;;;1524187;77;759;-65
2022/04/12 01:23:28;;;;;;;;;;;23.90;40.50;;;;;;1526708;77;763;-67
2022/04/12 01:25:30;;;;;;;;;;;23.80;40.40;;;;;;1521748;77;774;-66
2022/04/12 01:27:32;;;;;;;;;;;23.90;40.50;;;;;;1519280;77;1938;-63
2022/04/12 01:29:35;;;;;;;;;;;23.90;40.60;;;;;;1522955;77;1172;-64
2022/04/12 01:31:36;;;;;;;;;;;23.80;40.60;;;;;;1518941;77;748;-64
2022/04/12 01:33:38;;;;;;;;;;;23.90;40.60;;;;;;1527579;77;741;-67
2022/04/12 01:35:40;;;;;;;;;;;23.90;40.60;;;;;;1532638;77;760;-64
2022/04/12 01:37:42;;;;;;;;;;;23.80;40.60;;;;;;1524506;77;722;-65
2022/04/12 01:39:44;;;;;;;;;;;23.90;40.70;;;;;;1517536;77;1151;-64
2022/04/12 01:41:46;;;;;;;;;;;23.90;40.70;;;;;;1524837;77;810;-65
2022/04/12 01:43:48;;;;;;;;;;;23.90;40.70;;;;;;1523157;77;741;-66
2022/04/12 01:45:50;;;;;;;;;;;23.90;40.60;;;;;;1524897;77;1931;-64
2022/04/12 01:47:51;;;;;;;;;;;23.90;40.70;;;;;;1529694;77;686;-65
2022/04/12 01:49:53;;;;;;;;;;;23.90;40.70;;;;;;1524552;77;1132;-66
2022/04/12 01:51:55;;;;;;;;;;;23.90;40.60;;;;;;1520130;77;765;-63
2022/04/12 01:53:57;;;;;;;;;;;23.80;40.60;;;;;;1520506;77;883;-64
2022/04/12 01:55:59;;;;;;;;;;;23.90;40.70;;;;;;1523942;77;684;-62
2022/04/12 01:58:01;;;;;;;;;;;23.80;40.70;;;;;;1524065;77;637;-65
2022/04/12 02:00:04;;;;;;;;;;;23.90;40.90;;;;;;1528982;77;1149;-61
2022/04/12 02:02:05;;;;;;;;;;;23.90;40.90;;;;;;1523728;77;732;-63
2022/04/12 02:04:07;;;;;;;;;;;23.80;41.10;;;;;;1529452;77;774;-65
2022/04/12 02:06:09;;;;;;;;;;;23.90;41.10;;;;;;1523266;77;1920;-61
2022/04/12 02:08:11;;;;;;;;;;;23.90;41.00;;;;;;1522541;77;813;-61
2022/04/12 02:10:13;;;;;;;;;;;23.90;41.10;;;;;;1520190;77;1099;-61
2022/04/12 02:12:15;;;;;;;;;;;23.90;41.00;;;;;;1528349;77;698;-61
2022/04/12 02:14:17;;;;;;;;;;;23.90;41.00;;;;;;1523042;77;728;-62
2022/04/12 02:16:19;;;;;;;;;;;23.90;41.00;;;;;;1522574;77;713;-61
2022/04/12 02:18:20;;;;;;;;;;;23.80;41.30;;;;;;1530920;77;741;-62
2022/04/12 02:20:22;;;;;;;;;;;23.70;41.80;;;;;;1523182;77;1123;-63
2022/04/12 02:22:24;;;;;;;;;;;23.70;42.10;;;;;;1523449;77;712;-62
2022/04/12 02:24:26;;;;;;;;;;;23.60;42.20;;;;;;1526212;77;679;-64
2022/04/12 02:26:28;;;;;;;;;;;23.60;42.50;;;;;;1529934;77;1936;-63
2022/04/12 02:28:30;;;;;;;;;;;23.50;42.50;;;;;;1524226;77;681;-61
2022/04/12 02:30:32;;;;;;;;;;;23.50;42.50;;;;;;1508398;77;1119;-62
2022/04/12 02:32:33;;;;;;;;;;;23.40;42.60;;;;;;1531721;77;724;-64
2022/04/12 02:34:35;;;;;;;;;;;23.50;42.70;;;;;;1534682;77;757;-61
2022/04/12 02:36:37;;;;;;;;;;;23.40;42.60;;;;;;1523218;77;898;-65
2022/04/12 02:38:39;;;;;;;;;;;23.50;42.60;;;;;;1520567;77;898;-63
2022/04/12 02:40:41;;;;;;;;;;;23.40;42.50;;;;;;1512876;77;1111;-63
2022/04/12 02:42:43;;;;;;;;;;;23.40;42.60;;;;;;1515839;77;701;-63
2022/04/12 02:44:45;;;;;;;;;;;23.30;42.70;;;;;;1513162;77;781;-60
2022/04/12 02:46:47;;;;;;;;;;;23.40;42.90;;;;;;1515093;77;1944;-62
2022/04/12 02:48:49;;;;;;;;;;;23.30;43.10;;;;;;1519304;77;724;-62
2022/04/12 02:50:51;;;;;;;;;;;23.40;43.10;;;;;;1512097;77;1133;-62
2022/04/12 02:52:52;;;;;;;;;;;23.40;43.10;;;;;;1526185;77;960;-62
2022/04/12 02:54:54;;;;;;;;;;;23.40;43.20;;;;;;1531519;77;809;-62
2022/04/12 02:56:57;;;;;;;;;;;23.40;43.20;;;;;;1529656;77;783;-62
2022/04/12 02:58:59;;;;;;;;;;;23.40;43.30;;;;;;1524662;77;1093;-63
2022/04/12 03:01:01;;;;;;;;;;;23.30;43.30;;;;;;1521862;77;787;-63
2022/04/12 03:03:03;;;;;;;;;;;23.30;43.30;;;;;;1523810;77;777;-64
2022/04/12 03:05:05;;;;;;;;;;;23.30;43.30;;;;;;1515578;77;720;-63
2022/04/12 03:07:08;;;;;;;;;;;23.30;43.20;;;;;;1529273;77;1931;-63
2022/04/12 03:09:10;;;;;;;;;;;23.40;43.20;;;;;;1526893;77;1158;-63
2022/04/12 03:11:12;;;;;;;;;;;23.30;43.20;;;;;;1529090;77;786;-65
2022/04/12 03:13:14;;;;;;;;;;;23.30;43.30;;;;;;1529463;77;813;-62
2022/04/12 03:15:16;;;;;;;;;;;23.40;43.20;;;;;;1524419;77;770;-63
2022/04/12 03:17:18;;;;;;;;;;;23.30;43.30;;;;;;1533152;77;764;-66
2022/04/12 03:19:20;;;;;;;;;;;23.40;43.20;;;;;;1519588;77;1162;-62
2022/04/12 03:21:22;;;;;;;;;;;23.30;43.30;;;;;;1519964;77;781;-64
2022/04/12 03:23:24;;;;;;;;;;;23.40;43.20;;;;;;1535895;77;755;-63
2022/04/12 03:25:25;;;;;;;;;;;23.40;43.30;;;;;;1516586;77;772;-63
2022/04/12 03:27:29;;;;;;;;;;;23.40;43.30;;;;;;1523779;77;2108;-63
2022/04/12 03:29:31;;;;;;;;;;;23.40;43.40;;;;;;1519149;77;1533;-61
2022/04/12 03:31:33;;;;;;;;;;;23.50;43.60;;;;;;1531670;77;779;-64
2022/04/12 03:33:35;;;;;;;;;;;23.40;43.40;;;;;;1521647;77;812;-61
2022/04/12 03:35:37;;;;;;;;;;;23.40;43.40;;;;;;1532414;77;801;-63
2022/04/12 03:37:39;;;;;;;;;;;23.40;43.40;;;;;;1524427;77;722;-63
2022/04/12 03:39:43;;;;;;;;;;;23.40;43.40;;;;;;1520124;77;1077;-62
2022/04/12 03:41:46;;;;;;;;;;;23.40;43.30;;;;;;1520444;77;780;-63
2022/04/12 03:43:48;;;;;;;;;;;23.40;43.40;;;;;;1523588;77;812;-62
2022/04/12 03:45:49;;;;;;;;;;;23.40;43.40;;;;;;1530270;77;774;-63
2022/04/12 03:47:51;;;;;;;;;;;23.50;43.50;;;;;;1520871;77;1925;-62
2022/04/12 03:49:53;;;;;;;;;;;23.40;43.40;;;;;;1528228;77;1131;-62
2022/04/12 03:51:55;;;;;;;;;;;23.40;43.40;;;;;;1515525;77;764;-62
2022/04/12 03:53:57;;;;;;;;;;;23.50;43.40;;;;;;1528049;77;760;-62
2022/04/12 03:55:59;;;;;;;;;;;23.50;43.40;;;;;;1524143;77;802;-64
2022/04/12 03:58:02;;;;;;;;;;;23.50;43.50;;;;;;1524205;77;739;-65
2022/04/12 04:00:08;;;;;;;;;;;23.50;43.40;;;;;;1525369;77;1145;-63
2022/04/12 04:02:08;;;;;;;;;;;23.50;43.40;;;;;;1522719;77;1485;-63
2022/04/12 04:04:10;;;;;;;;;;;23.40;43.30;;;;;;1522263;77;789;-62
2022/04/12 04:06:12;;;;;;;;;;;23.50;43.40;;;;;;1531851;77;786;-62
2022/04/12 04:08:14;;;;;;;;;;;23.50;43.50;;;;;;1519468;77;1929;-63
2022/04/12 04:10:16;;;;;;;;;;;23.40;43.40;;;;;;1526868;77;1132;-62
2022/04/12 04:12:18;;;;;;;;;;;23.50;43.50;;;;;;1517392;77;729;-64
2022/04/12 04:14:21;;;;;;;;;;;23.40;43.40;;;;;;1536807;77;804;-65
2022/04/12 04:16:23;;;;;;;;;;;23.50;43.60;;;;;;1524729;77;675;-64
2022/04/12 04:18:25;;;;;;;;;;;23.40;43.50;;;;;;1529661;77;723;-64
2022/04/12 04:20:27;;;;;;;;;;;23.50;43.60;;;;;;1524893;77;1155;-67
2022/04/12 04:22:29;;;;;;;;;;;23.40;43.50;;;;;;1526726;77;729;-64
2022/04/12 04:24:31;;;;;;;;;;;23.40;43.60;;;;;;1518834;77;664;-66
2022/04/12 04:26:33;;;;;;;;;;;23.40;43.60;;;;;;1516848;78;734;-66
2022/04/12 04:28:35;;;;;;;;;;;23.40;43.60;;;;;;1517386;77;1969;-67
2022/04/12 04:30:37;;;;;;;;;;;23.50;43.80;;;;;;1528150;77;1185;-64
2022/04/12 04:32:39;;;;;;;;;;;23.40;43.70;;;;;;1525449;77;686;-64
2022/04/12 04:34:41;;;;;;;;;;;23.40;43.70;;;;;;1513430;77;837;-66
2022/04/12 04:36:43;;;;;;;;;;;23.40;43.80;;;;;;1513244;77;745;-66
2022/04/12 04:38:45;;;;;;;;;;;23.40;43.80;;;;;;1520477;77;743;-65
2022/04/12 04:40:48;;;;;;;;;;;23.50;43.90;;;;;;1503364;77;1127;-65
2022/04/12 04:42:53;;;;;;;;;;;23.50;43.90;;;;;;1504244;77;751;-64
2022/04/12 04:44:55;;;;;;;;;;;23.50;44.10;;;;;;1524312;77;959;-65
2022/04/12 04:46:57;;;;;;;;;;;23.50;44.10;;;;;;1495513;78;1941;-65
2022/04/12 04:48:59;;;;;;;;;;;23.50;44.00;;;;;;1522956;77;1116;-68
2022/04/12 04:51:01;;;;;;;;;;;23.40;43.90;;;;;;1513107;77;694;-65
2022/04/12 04:53:03;;;;;;;;;;;23.50;44.00;;;;;;1516957;78;779;-66
2022/04/12 04:55:05;;;;;;;;;;;23.50;44.10;;;;;;1508323;78;720;-65
2022/04/12 04:57:07;;;;;;;;;;;23.50;44.10;;;;;;1505452;78;769;-66
2022/04/12 04:59:13;;;;;;;;;;;23.50;44.10;;;;;;1516522;78;1144;-66
2022/04/12 05:01:12;;;;;;;;;;;23.50;44.10;;;;;;1508046;77;1492;-65
2022/04/12 05:03:14;;;;;;;;;;;23.50;44.00;;;;;;1510881;77;750;-65
2022/04/12 05:05:16;;;;;;;;;;;23.40;44.00;;;;;;1515290;78;711;-66
2022/04/12 05:07:20;;;;;;;;;;;23.40;44.10;;;;;;1503546;77;1916;-64
2022/04/12 05:09:22;;;;;;;;;;;23.50;44.20;;;;;;1523860;77;1964;-65
2022/04/12 05:11:24;;;;;;;;;;;23.40;44.20;;;;;;1505892;77;755;-65
2022/04/12 05:13:26;;;;;;;;;;;23.50;44.40;;;;;;1509363;77;718;-65
2022/04/12 05:15:28;;;;;;;;;;;23.50;44.40;;;;;;1517647;77;752;-65
2022/04/12 05:17:30;;;;;;;;;;;23.50;44.40;;;;;;1507515;77;780;-65
2022/04/12 05:19:32;;;;;;;;;;;23.60;44.40;;;;;;1519644;77;1136;-66
2022/04/12 05:21:34;;;;;;;;;;;23.60;44.30;;;;;;1508371;78;749;-65
2022/04/12 05:23:36;;;;;;;;;;;23.50;44.20;;;;;;1504282;77;756;-65
2022/04/12 05:25:38;;;;;;;;;;;23.50;44.20;;;;;;1508255;78;766;-65
2022/04/12 05:27:40;;;;;;;;;;;23.50;44.40;;;;;;1516592;77;1960;-64
2022/04/12 05:29:42;;;;;;;;;;;23.60;44.40;;;;;;1516511;78;1183;-62
2022/04/12 05:31:48;;;;;;;;;;;23.60;44.40;;;;;;1512447;77;752;-65
2022/04/12 05:33:47;;;;;;;;;;;23.50;44.20;;;;;;1502890;78;816;-64
2022/04/12 05:35:49;;;;;;;;;;;23.60;44.00;;;;;;1524705;77;889;-64
2022/04/12 05:37:52;;;;;;;;;;;23.60;43.80;;;;;;1506713;77;758;-62
2022/04/12 05:39:54;;;;;;;;;;;23.70;43.70;;;;;;1503479;77;1141;-63
2022/04/12 05:42:00;;;;;;;;;;;23.60;43.40;;;;;;1517238;77;743;-64
2022/04/12 05:43:59;;;;;;;;;;;23.70;43.40;;;;;;1511745;77;1761;-61
2022/04/12 05:46:01;;;;;;;;;;;23.60;43.10;;;;;;1508358;77;785;-62
2022/04/12 05:48:03;;;;;;;;;;;23.70;43.10;;;;;;1503724;77;1924;-63
2022/04/12 05:50:05;;;;;;;;;;;23.70;43.00;;;;;;1503309;77;1187;-62
2022/04/12 05:52:12;;;;;;;;;;;23.70;42.80;;;;;;1516820;77;771;-64
2022/04/12 05:54:11;;;;;;;;;;;23.60;42.80;;;;;;1509325;77;1627;-62
2022/04/12 05:56:13;;;;;;;;;;;23.70;42.80;;;;;;1504273;77;693;-62
2022/04/12 05:58:15;;;;;;;;;;;23.60;42.60;;;;;;1503347;77;862;-63
2022/04/12 06:00:18;;;;;;;;;;;23.70;42.60;;;;;;1504611;78;1146;-63
2022/04/12 06:02:20;;;;;;;;;;;23.60;42.50;;;;;;1522941;77;712;-62
2022/04/12 06:04:22;;;;;;;;;;;23.60;42.50;;;;;;1510768;77;709;-62
2022/04/12 06:06:24;;;;;;;;;;;23.60;42.50;;;;;;1511494;78;749;-63
2022/04/12 06:08:25;;;;;;;;;;;23.60;42.40;;;;;;1515917;78;1946;-61
2022/04/12 06:10:27;;;;;;;;;;;23.60;42.40;;;;;;1517077;77;1131;-66
2022/04/12 06:12:29;;;;;;;;;;;23.60;42.50;;;;;;1515686;77;702;-62
2022/04/12 06:14:31;;;;;;;;;;;23.60;42.40;;;;;;1518730;77;743;-61
2022/04/12 06:16:33;;;;;;;;;;;23.50;42.50;;;;;;1503918;78;787;-63
2022/04/12 06:18:35;;;;;;;;;;;23.50;42.50;;;;;;1516960;78;682;-62
2022/04/12 06:20:37;;;;;;;;;;;23.50;42.60;;;;;;1504390;77;1113;-63
2022/04/12 06:22:39;;;;;;;;;;;23.50;42.50;;;;;;1522097;77;640;-63
2022/04/12 06:24:42;;;;;;;;;;;23.50;42.50;;;;;;1499417;78;607;-62
2022/04/12 06:26:44;;;;;;;;;;;23.50;42.50;;;;;;1505023;78;755;-62
2022/04/12 06:28:46;;;;;;;;;;;23.50;42.60;;;;;;1517286;78;1946;-63
2022/04/12 06:30:48;;;;;;;;;;;23.40;42.40;;;;;;1504613;78;1081;-63
2022/04/12 06:32:50;;;;;;;;;;;23.50;42.60;;;;;;1508621;77;798;-60
2022/04/12 06:34:52;;;;;;;;;;;23.50;42.60;;;;;;1503541;77;758;-62
2022/04/12 06:36:54;;;;;;;;;;;23.50;42.60;;;;;;1507791;78;727;-64
2022/04/12 06:38:57;;;;;;;;;;;23.50;42.50;;;;;;1513919;78;1156;-62
2022/04/12 06:40:58;;;;;;;;;;;23.50;42.50;;;;;;1499434;77;2044;-61
2022/04/12 06:43:00;;;;;;;;;;;23.50;42.50;;;;;;1512989;77;780;-62
2022/04/12 06:45:02;;;;;;;;;;;23.50;42.40;;;;;;1523427;77;772;-63
2022/04/12 06:47:04;;;;;;;;;;;23.50;42.40;;;;;;1511308;77;686;-64
2022/04/12 06:49:06;;;;;;;;;;;23.50;42.40;;;;;;1509308;78;1923;-62
2022/04/12 06:51:08;;;;;;;;;;;23.40;42.30;;;;;;1514805;77;1105;-64
2022/04/12 06:53:10;;;;;;;;;;;23.40;42.30;;;;;;1508925;78;741;-65
2022/04/12 06:55:12;;;;;;;;;;;23.50;42.40;;;;;;1505589;78;780;-62
2022/04/12 06:57:14;;;;;;;;;;;23.50;42.40;;;;;;1503409;77;735;-62
2022/04/12 06:59:16;;;;;;;;;;;23.50;42.40;;;;;;1503277;78;797;-63
2022/04/12 07:01:18;;;;;;;;;;;23.40;42.30;;;;;;1508554;78;1067;-62
2022/04/12 07:03:21;;;;;;;;;;;23.40;42.30;;;;;;1508343;78;682;-64
2022/04/12 07:05:23;;;;;;;;;;;23.40;42.20;;;;;;1506942;77;680;-68
2022/04/12 07:07:25;;;;;;;;;;;23.40;42.30;;;;;;1511708;77;697;-66
2022/04/12 07:09:27;;;;;;;;;;;23.40;42.30;;;;;;1506381;77;1950;-63
2022/04/12 07:11:29;;;;;;;;;;;23.50;42.30;;;;;;1523918;77;717;-64
2022/04/12 07:13:31;;;;;;;;;;;23.50;42.40;;;;;;1518868;77;799;-63
2022/04/12 07:15:33;;;;;;;;;;;23.50;42.50;;;;;;1511438;77;788;-64
2022/04/12 07:17:34;;;;;;;;;;;23.50;42.50;;;;;;1511829;78;860;-62
2022/04/12 07:19:36;;;;;;;;;;;23.50;42.60;;;;;;1503654;78;1121;-61
2022/04/12 07:21:39;;;;;;;;;;;23.40;42.40;;;;;;1503632;78;824;-64
2022/04/12 07:23:41;;;;;;;;;;;23.50;42.60;;;;;;1491469;78;677;-62
2022/04/12 07:25:43;;;;;;;;;;;23.50;42.60;;;;;;1504829;78;821;-67
2022/04/12 07:27:45;;;;;;;;;;;23.50;42.70;;;;;;1494224;78;715;-64
2022/04/12 07:29:47;;;;;;;;;;;23.50;42.80;;;;;;1490919;78;1948;-63
2022/04/12 07:31:49;;;;;;;;;;;23.50;42.80;;;;;;1503222;78;683;-64
2022/04/12 07:33:51;;;;;;;;;;;23.50;42.80;;;;;;1499678;78;821;-67
2022/04/12 07:35:53;;;;;;;;;;;23.50;42.70;;;;;;1507468;78;730;-64
2022/04/12 07:37:55;;;;;;;;;;;23.50;42.70;;;;;;1483051;78;753;-66
2022/04/12 07:39:56;;;;;;;;;;;23.30;42.60;;;;;;1492482;77;1244;-64
2022/04/12 07:41:59;;;;;;;;;;;23.50;42.70;;;;;;1507419;78;835;-64
2022/04/12 07:44:01;;;;;;;;;;;23.50;42.60;;;;;;1515586;78;783;-65
2022/04/12 07:46:04;;;;;;;;;;;23.50;42.70;;;;;;1515807;78;692;-69
2022/04/12 07:48:06;;;;;;;;;;;23.50;42.70;;;;;;1498986;78;1900;-65
2022/04/12 07:50:09;;;;;;;;;;;23.50;42.70;;;;;;1499191;78;1151;-67
2022/04/12 07:52:11;;;;;;;;;;;23.50;42.60;;;;;;1498120;77;772;-64
2022/04/12 07:54:13;;;;;;;;;;;23.50;42.60;;;;;;1489407;78;747;-63
2022/04/12 07:56:16;;;;;;;;;;;23.50;42.60;;;;;;1492741;78;858;-64
2022/04/12 07:58:18;;;;;;;;;;;23.50;42.60;;;;;;1505792;77;798;-67
2022/04/12 08:00:20;;;;;;;;;;;23.50;42.60;;;;;;1509721;78;1074;-66
2022/04/12 08:02:22;;;;;;;;;;;23.40;42.50;;;;;;1501998;78;752;-63
2022/04/12 08:04:24;;;;;;;;;;;23.50;42.70;;;;;;1512443;77;713;-66
2022/04/12 08:06:25;;;;;;;;;;;23.50;42.70;;;;;;1524549;77;728;-65
2022/04/12 08:08:27;;;;;;;;;;;23.50;42.70;;;;;;1505451;77;1938;-65
2022/04/12 08:10:29;;;;;;;;;;;23.50;42.70;;;;;;1513006;77;1152;-64
2022/04/12 08:12:31;;;;;;;;;;;23.50;42.70;;;;;;1501546;78;792;-66
2022/04/12 08:14:33;;;;;;;;;;;23.50;42.60;;;;;;1510248;78;849;-66
2022/04/12 08:16:35;;;;;;;;;;;23.50;42.60;;;;;;1506099;78;830;-63
2022/04/12 08:18:37;;;;;;;;;;;23.50;42.60;;;;;;1494285;78;838;-63
2022/04/12 08:20:38;;;;;;;;;;;23.50;42.60;;;;;;1498514;77;1140;-66
2022/04/12 08:22:41;;;;;;;;;;;23.50;42.60;;;;;;1504563;78;672;-63
2022/04/12 08:24:42;;;;;;;;;;;23.60;42.60;;;;;;1505630;77;779;-64
2022/04/12 08:26:44;;;;;;;;;;;23.50;42.60;;;;;;1498489;77;695;-66
2022/04/12 08:28:46;;;;;;;;;;;23.50;42.50;;;;;;1499697;78;1932;-65
2022/04/12 08:30:48;;;;;;;;;;;23.50;42.60;;;;;;1507040;77;1131;-67
2022/04/12 08:32:50;;;;;;;;;;;23.50;42.60;;;;;;1507701;78;849;-63
2022/04/12 08:34:53;;;;;;;;;;;23.50;42.60;;;;;;1501551;78;813;-64
2022/04/12 08:36:55;;;;;;;;;;;23.50;42.60;;;;;;1512977;77;670;-65
2022/04/12 08:38:57;;;;;;;;;;;23.60;42.60;;;;;;1491286;78;780;-65
2022/04/12 08:40:59;;;;;;;;;;;23.50;42.60;;;;;;1492994;78;1178;-66
2022/04/12 08:43:00;;;;;;;;;;;23.50;42.60;;;;;;1505964;78;701;-65
2022/04/12 08:45:03;;;;;;;;;;;23.60;42.60;;;;;;1524308;77;740;-66
2022/04/12 08:47:05;;;;;;;;;;;23.60;42.60;;;;;;1497418;78;743;-64
2022/04/12 08:49:07;;;;;;;;;;;23.60;42.60;;;;;;1513366;77;1907;-64
2022/04/12 08:51:09;;;;;;;;;;;23.60;42.60;;;;;;1510803;78;1132;-69
2022/04/12 08:53:11;;;;;;;;;;;23.60;42.60;;;;;;1514160;77;800;-65
2022/04/12 08:55:13;;;;;;;;;;;23.60;42.60;;;;;;1507969;77;730;-64
2022/04/12 08:57:14;;;;;;;;;;;23.60;42.70;;;;;;1508395;77;781;-65
2022/04/12 08:59:16;;;;;;;;;;;23.60;42.70;;;;;;1499135;77;702;-68
2022/04/12 09:01:19;;;;;;;;;;;23.60;42.70;;;;;;1512541;77;1071;-65
2022/04/12 09:03:20;;;;;;;;;;;23.60;42.70;;;;;;1531772;76;708;-66
2022/04/12 09:05:22;;;;;;;;;;;23.60;42.70;;;;;;1504346;78;673;-69
2022/04/12 09:07:26;;;;;;;;;;;23.50;42.70;;;;;;1504190;79;815;-68
2022/04/12 09:09:29;;;;;;;;;;;23.60;42.80;;;;;;1518722;77;1976;-66
2022/04/12 09:11:33;;;;;;;;;;;23.60;42.70;;;;;;1501641;78;686;-68
2022/04/12 09:13:35;;;;;;;;;;;23.60;42.80;;;;;;1507829;78;1488;-66
2022/04/12 09:15:45;;;;;;;;;;;23.60;42.80;;;;;;1508959;77;759;-68
2022/04/12 09:17:48;;;;;;;;;;;23.60;42.80;;;;;;1499735;77;1459;-67
2022/04/12 09:19:51;;;;;;;;;;;23.50;42.90;;;;;;1527400;76;1155;-67
2022/04/12 09:21:53;;;;;;;;;;;23.60;42.90;;;;;;1525023;76;726;-65
2022/04/12 09:24:01;;;;;;;;;;;23.60;43.00;;;;;;1530087;77;706;-64
2022/04/12 09:26:01;;;;;;;;;;;23.60;43.00;;;;;;1501927;78;1641;-65
2022/04/12 09:28:03;;;;;;;;;;;23.60;42.90;;;;;;1508240;77;747;-67
2022/04/12 09:30:09;;;;;;;;;;;23.60;42.90;;;;;;1496402;78;1935;-71
2022/04/12 09:32:14;;;;;;;;;;;23.60;42.50;;;;;;1507944;77;735;-66
2022/04/12 09:34:15;;;;;;;;;;;23.60;39.80;;;;;;1529674;76;1681;-67
2022/04/12 09:36:17;;;;;;;;;;;23.50;38.10;;;;;;1487825;79;720;-66
2022/04/12 09:38:20;;;;;;;;;;;23.60;38.20;;;;;;1520412;77;765;-64
2022/04/12 09:40:22;;;;;;;;;;;23.50;32.80;;;;;;1524345;77;1825;-69
2022/04/12 09:42:42;;;;;;;;;;;23.50;35.60;;;;;;1502275;79;1139;-68
2022/04/12 09:44:44;;;;;;;;;;;23.50;33.40;;;;;;1522209;77;771;-69
2022/04/12 09:46:47;;;;;;;;;;;23.40;34.40;;;;;;1504632;79;667;-67
2022/04/12 09:48:50;;;;;;;;;;;23.30;35.60;;;;;;1505552;77;1909;-72
2022/04/12 09:50:51;;;;;;;;;;;23.30;31.60;;;;;;1509005;78;1140;-71
2022/04/12 09:53:01;;;;;;;;;;;23.30;32.20;;;;;;1508342;77;781;-74
2022/04/12 09:55:03;;;;;;;;;;;23.30;32.30;;;;;;1486532;78;738;-72
2022/04/12 09:57:05;;;;;;;;;;;23.30;34.40;;;;;;1519307;77;721;-70
2022/04/12 09:59:07;;;;;;;;;;;23.40;35.00;;;;;;1532613;77;733;-72
2022/04/12 10:01:10;;;;;;;;;;;23.40;34.70;;;;;;1503934;78;1145;-73
2022/04/12 10:03:13;;;;;;;;;;;23.40;36.00;;;;;;1501106;77;1003;-70
2022/04/12 10:05:15;;;;;;;;;;;23.40;33.80;;;;;;1498068;77;667;-70
2022/04/12 10:07:17;;;;;;;;;;;23.40;34.70;;;;;;1521810;77;707;-66
2022/04/12 10:09:20;;;;;;;;;;;23.50;35.50;;;;;;1517159;77;1937;-72
2022/04/12 10:11:22;;;;;;;;;;;23.40;36.00;;;;;;1528562;77;1153;-67
2022/04/12 10:13:24;;;;;;;;;;;23.40;36.60;;;;;;1528483;77;689;-70
2022/04/12 10:15:26;;;;;;;;;;;23.40;35.90;;;;;;1490621;80;729;-68
2022/04/12 10:17:28;;;;;;;;;;;23.40;36.30;;;;;;1525368;77;694;-67
2022/04/12 10:19:30;;;;;;;;;;;23.40;34.50;;;;;;1519017;77;1173;-68
2022/04/12 10:21:32;;;;;;;;;;;23.60;35.00;;;;;;1521869;77;724;-67
2022/04/12 10:23:34;;;;;;;;;;;23.60;34.20;;;;;;1517695;77;741;-73
2022/04/12 10:25:36;;;;;;;;;;;23.50;32.00;;;;;;1518921;77;1043;-67
2022/04/12 10:27:38;;;;;;;;;;;23.50;34.60;;;;;;1495233;79;751;-68
2022/04/12 10:29:40;;;;;;;;;;;23.50;32.60;;;;;;1526646;77;1939;-64
2022/04/12 10:31:43;;;;;;;;;;;23.50;32.80;;;;;;1532994;77;787;-74
2022/04/12 10:34:05;;;;;;;;;;;23.40;32.50;;;;;;1493019;77;1410;-69
2022/04/12 10:36:07;;;;;;;;;;;23.30;32.40;;;;;;1526987;77;665;-70
2022/04/12 10:38:12;;;;;;;;;;;23.50;32.50;;;;;;1508122;78;734;-72
2022/04/12 10:40:14;;;;;;;;;;;23.30;32.20;;;;;;1506522;77;1169;-68
2022/04/12 10:42:26;;;;;;;;;;;23.30;31.50;;;;;;1513774;77;787;-68
2022/04/12 10:44:27;;;;;;;;;;;23.20;31.10;;;;;;1518853;77;702;-68
2022/04/12 10:46:31;;;;;;;;;;;23.20;30.90;;;;;;1519592;77;780;-71
2022/04/12 10:48:33;;;;;;;;;;;23.10;31.10;;;;;;1506522;78;995;-69
2022/04/12 10:50:44;;;;;;;;;;;23.20;31.00;;;;;;1510779;78;1921;-69
2022/04/12 10:52:46;;;;;;;;;;;23.00;31.50;;;;;;1507613;78;788;-71
2022/04/12 10:54:49;;;;;;;;;;;23.00;30.30;;;;;;1510184;78;692;-69
2022/04/12 10:56:52;;;;;;;;;;;23.00;30.70;;;;;;1525521;77;679;-68
2022/04/12 10:58:54;;;;;;;;;;;23.10;31.40;;;;;;1529319;77;1123;-70
2022/04/12 11:00:56;;;;;;;;;;;23.00;29.80;;;;;;1509292;77;1154;-70
2022/04/12 11:02:58;;;;;;;;;;;23.00;30.30;;;;;;1513430;77;725;-69
2022/04/12 11:05:01;;;;;;;;;;;23.00;31.80;;;;;;1504362;77;744;-69
2022/04/12 11:07:03;;;;;;;;;;;22.90;30.20;;;;;;1509055;77;778;-70
2022/04/12 11:09:15;;;;;;;;;;;23.00;31.70;;;;;;1513083;77;730;-71
2022/04/12 11:11:20;;;;;;;;;;;22.90;30.40;;;;;;1508460;77;1620;-74
2022/04/12 11:13:23;;;;;;;;;;;22.90;31.40;;;;;;1512414;77;690;-75
2022/04/12 11:15:26;;;;;;;;;;;22.90;32.10;;;;;;1514398;77;732;-78
2022/04/12 11:17:29;;;;;;;;;;;23.00;32.10;;;;;;1513130;77;661;-74
2022/04/12 11:19:44;;;;;;;;;;;23.00;32.10;;;;;;1472141;78;1173;-76
2022/04/12 11:21:51;;;;;;;;;;;23.00;32.20;;;;;;1522762;77;770;-75
2022/04/12 11:23:57;;;;;;;;;;;23.10;31.80;;;;;;1502345;78;825;-74
2022/04/12 11:26:01;;;;;;;;;;;23.20;32.40;;;;;;1499766;78;729;-76
2022/04/12 11:28:03;;;;;;;;;;;23.10;32.50;;;;;;1505431;77;1162;-74
2022/04/12 11:30:05;;;;;;;;;;;23.20;32.60;;;;;;1506031;78;1945;-77
2022/04/12 11:32:07;;;;;;;;;;;23.20;32.60;;;;;;1501423;78;594;-75
2022/04/12 11:34:09;;;;;;;;;;;23.20;32.60;;;;;;1505339;77;731;-74
2022/04/12 11:36:12;;;;;;;;;;;23.10;32.60;;;;;;1516882;78;750;-74
2022/04/12 11:38:14;;;;;;;;;;;23.20;32.80;;;;;;1519957;78;695;-75
2022/04/12 11:40:16;;;;;;;;;;;23.20;32.50;;;;;;1505290;78;1225;-75
2022/04/12 11:42:18;;;;;;;;;;;23.20;32.80;;;;;;1517239;77;718;-75
2022/04/12 11:44:21;;;;;;;;;;;23.10;32.80;;;;;;1502809;77;821;-75
2022/04/12 11:46:23;;;;;;;;;;;23.20;33.00;;;;;;1508941;78;728;-75
2022/04/12 11:48:28;;;;;;;;;;;23.20;32.20;;;;;;1499269;78;705;-75
2022/04/12 11:50:30;;;;;;;;;;;23.10;32.50;;;;;;1509544;78;1911;-75
2022/04/12 11:52:32;;;;;;;;;;;23.10;33.00;;;;;;1500247;78;707;-74
2022/04/12 11:54:34;;;;;;;;;;;23.10;32.80;;;;;;1506270;77;627;-77
2022/04/12 11:56:36;;;;;;;;;;;23.20;32.90;;;;;;1508271;78;732;-72
2022/04/12 11:58:38;;;;;;;;;;;23.10;33.00;;;;;;1514710;78;753;-73
2022/04/12 12:00:40;;;;;;;;;;;23.10;33.20;;;;;;1512733;77;1094;-74
2022/04/12 12:02:42;;;;;;;;;;;23.10;33.20;;;;;;1510148;77;693;-73
2022/04/12 12:04:45;;;;;;;;;;;23.20;33.30;;;;;;1507031;77;747;-77
2022/04/12 12:06:55;;;;;;;;;;;23.10;33.20;;;;;;1515528;77;633;-75
2022/04/12 12:08:56;;;;;;;;;;;23.20;33.20;;;;;;1513475;77;1044;-71
2022/04/12 12:10:58;;;;;;;;;;;23.10;33.30;;;;;;1503404;77;1961;-74
2022/04/12 12:13:01;;;;;;;;;;;23.10;33.30;;;;;;1501489;77;794;-74